Time;durP1;ratioP1;P1;durP2;ratioP2;P2;SDS_P1;SDS_P2;PMS_P1;PMS_P2;Temp;Humidity;BMP_temperature;BMP_pressure;BME280_temperature;BME280_humidity;BME280_pressure;Samples;Min_cycle;Max_cycle;Signal;HPM_P1;HPM_P2
2021/03/23 00:01:47;;;;;;;6.32;2.20;;;8.30;99.90;;;;;;4958235;28;20484;-72
2021/03/23 00:04:14;;;;;;;10.07;3.03;;;8.40;99.90;;;;;;4978972;28;20500;-72
2021/03/23 00:06:39;;;;;;;4.38;2.10;;;8.40;99.90;;;;;;4977041;28;20026;-71
2021/03/23 00:09:06;;;;;;;4.72;2.60;;;8.30;99.90;;;;;;4980783;28;20375;-72
2021/03/23 00:11:35;;;;;;;6.55;2.80;;;8.30;99.90;;;;;;4984826;28;20054;-72
2021/03/23 00:14:03;;;;;;;5.40;2.85;;;8.30;99.90;;;;;;4982334;28;20516;-72
2021/03/23 00:16:32;;;;;;;6.07;2.50;;;8.30;99.90;;;;;;4983888;28;20038;-72
2021/03/23 00:18:58;;;;;;;7.38;2.38;;;8.30;99.90;;;;;;4979845;28;20030;-72
2021/03/23 00:21:25;;;;;;;4.15;2.35;;;8.30;99.90;;;;;;4971950;28;20085;-72
2021/03/23 00:23:50;;;;;;;8.75;2.35;;;8.30;99.90;;;;;;4979177;28;20027;-72
2021/03/23 00:26:17;;;;;;;6.63;2.33;;;8.30;99.90;;;;;;4979388;28;20037;-72
2021/03/23 00:28:47;;;;;;;5.18;2.75;;;8.30;99.90;;;;;;4974119;28;20429;-72
2021/03/23 00:31:18;;;;;;;4.40;2.25;;;8.30;99.90;;;;;;4978291;28;20038;-72
2021/03/23 00:33:44;;;;;;;5.07;2.17;;;8.20;99.90;;;;;;4979044;28;20042;-72
2021/03/23 00:36:10;;;;;;;8.02;2.63;;;8.20;99.90;;;;;;4982694;28;20037;-72
2021/03/23 00:38:39;;;;;;;9.95;2.65;;;8.20;99.90;;;;;;4982657;28;20034;-73
2021/03/23 00:41:06;;;;;;;4.82;2.55;;;8.10;99.90;;;;;;4977407;28;20120;-72
2021/03/23 00:43:32;;;;;;;7.70;2.80;;;8.20;99.90;;;;;;4983224;28;20018;-72
2021/03/23 00:45:58;;;;;;;5.43;2.60;;;8.10;99.90;;;;;;4981662;28;20045;-72
2021/03/23 00:48:24;;;;;;;5.35;2.45;;;8.20;99.90;;;;;;4982019;28;20673;-71
2021/03/23 00:50:49;;;;;;;6.53;2.85;;;8.10;99.90;;;;;;4987289;28;20037;-72
2021/03/23 00:53:15;;;;;;;6.78;2.40;;;8.10;99.90;;;;;;4975653;28;20031;-71
2021/03/23 00:55:41;;;;;;;4.28;2.58;;;8.10;99.90;;;;;;4975526;28;20030;-72
2021/03/23 00:58:07;;;;;;;8.60;2.50;;;8.10;99.90;;;;;;4976996;28;20085;-72
2021/03/23 01:00:33;;;;;;;5.10;2.38;;;8.00;99.90;;;;;;4978524;28;20061;-72
2021/03/23 01:02:59;;;;;;;5.35;2.45;;;8.10;99.90;;;;;;4979058;28;20035;-72
2021/03/23 01:05:28;;;;;;;6.13;2.17;;;8.00;99.90;;;;;;4982589;28;20029;-72
2021/03/23 01:07:54;;;;;;;4.00;1.95;;;8.00;99.90;;;;;;4980277;28;20568;-72
2021/03/23 01:10:22;;;;;;;8.15;2.85;;;8.00;99.90;;;;;;4984184;28;20034;-72
2021/03/23 01:12:48;;;;;;;7.57;2.75;;;8.00;99.90;;;;;;4982030;28;20101;-72
2021/03/23 01:15:16;;;;;;;5.70;2.33;;;8.00;99.90;;;;;;4981932;28;20125;-72
2021/03/23 01:17:43;;;;;;;5.72;2.72;;;8.00;99.90;;;;;;4981328;28;20081;-72
2021/03/23 01:20:10;;;;;;;6.63;2.47;;;7.90;99.90;;;;;;4980647;28;20393;-72
2021/03/23 01:22:36;;;;;;;5.50;2.13;;;7.90;99.90;;;;;;4983006;28;20026;-72
2021/03/23 01:25:02;;;;;;;5.65;2.67;;;8.00;99.90;;;;;;4977893;28;20023;-72
2021/03/23 01:27:28;;;;;;;6.22;2.72;;;8.00;99.90;;;;;;4976179;28;20025;-71
2021/03/23 01:29:53;;;;;;;8.02;2.60;;;8.00;99.90;;;;;;4977584;28;20117;-73
2021/03/23 01:32:19;;;;;;;5.60;2.00;;;7.90;99.90;;;;;;4982379;28;20050;-72
2021/03/23 01:34:45;;;;;;;6.20;2.28;;;8.00;99.90;;;;;;4981062;28;20093;-71
2021/03/23 01:37:12;;;;;;;7.00;1.65;;;8.00;99.90;;;;;;4982794;28;20065;-72
2021/03/23 01:39:38;;;;;;;4.63;1.90;;;7.90;99.90;;;;;;4981481;28;20058;-72
2021/03/23 01:42:04;;;;;;;5.90;2.35;;;7.90;99.90;;;;;;4984408;28;20076;-72
2021/03/23 01:44:30;;;;;;;4.05;2.17;;;7.80;99.90;;;;;;4985819;28;20058;-72
2021/03/23 01:46:55;;;;;;;5.80;2.20;;;7.70;99.90;;;;;;4981312;28;20053;-71
2021/03/23 01:49:22;;;;;;;5.22;1.73;;;7.70;99.90;;;;;;4982665;28;20440;-72
2021/03/23 01:51:51;;;;;;;3.40;2.00;;;7.70;99.90;;;;;;4985268;28;20046;-72
2021/03/23 01:54:27;;;;;;;3.17;2.20;;;7.70;99.90;;;;;;4981855;28;20520;-72
2021/03/23 01:56:56;;;;;;;4.38;2.05;;;7.80;99.90;;;;;;4980064;28;20049;-72
2021/03/23 01:59:24;;;;;;;8.27;2.67;;;7.80;99.90;;;;;;4983673;28;20120;-72
2021/03/23 02:01:52;;;;;;;5.13;2.10;;;7.80;99.90;;;;;;4982067;28;20097;-71
2021/03/23 02:04:18;;;;;;;3.70;2.40;;;7.70;99.90;;;;;;4986256;28;20474;-72
2021/03/23 02:06:46;;;;;;;5.93;2.42;;;7.70;99.90;;;;;;4982686;28;20077;-72
2021/03/23 02:09:19;;;;;;;3.60;1.90;;;7.70;99.90;;;;;;4979733;28;20027;-71
2021/03/23 02:11:57;;;;;;;3.72;2.50;;;7.60;99.90;;;;;;4988234;28;20029;-72
2021/03/23 02:14:26;;;;;;;6.55;2.40;;;7.60;99.90;;;;;;4986153;28;20030;-72
2021/03/23 02:16:51;;;;;;;5.93;2.50;;;7.60;99.90;;;;;;4986067;28;20034;-72
2021/03/23 02:19:24;;;;;;;3.70;2.33;;;7.60;99.90;;;;;;4978926;28;20109;-72
2021/03/23 02:21:50;;;;;;;6.43;3.05;;;7.60;99.90;;;;;;4985855;28;20037;-72
2021/03/23 02:24:16;;;;;;;6.90;3.05;;;7.50;99.90;;;;;;4979570;28;20026;-72
2021/03/23 02:26:43;;;;;;;3.88;2.60;;;7.50;99.90;;;;;;4976727;28;20061;-72
2021/03/23 02:29:12;;;;;;;6.65;3.15;;;7.50;99.90;;;;;;4978478;28;20030;-72
2021/03/23 02:31:45;;;;;;;4.60;2.75;;;7.50;99.90;;;;;;4986002;28;20061;-72
2021/03/23 02:34:15;;;;;;;6.35;2.90;;;7.50;99.90;;;;;;4982334;28;20109;-72
2021/03/23 02:36:42;;;;;;;10.10;3.67;;;7.50;99.90;;;;;;4984562;28;20402;-72
2021/03/23 02:39:11;;;;;;;9.02;3.90;;;7.60;99.90;;;;;;4983393;28;20225;-72
2021/03/23 02:41:36;;;;;;;7.63;3.88;;;7.60;99.90;;;;;;4985089;28;20030;-72
2021/03/23 02:44:03;;;;;;;9.07;3.75;;;7.50;99.90;;;;;;4976508;28;20038;-72
2021/03/23 02:46:29;;;;;;;7.13;4.00;;;7.50;99.90;;;;;;4979146;28;20038;-71
2021/03/23 02:48:54;;;;;;;8.52;3.58;;;7.60;99.90;;;;;;4983174;28;20027;-72
2021/03/23 02:51:20;;;;;;;6.63;4.10;;;7.50;99.90;;;;;;4986754;28;20026;-72
2021/03/23 02:53:47;;;;;;;10.15;3.72;;;7.60;99.90;;;;;;4983539;28;20030;-72
2021/03/23 02:56:13;;;;;;;9.65;4.28;;;7.50;99.90;;;;;;4979402;28;20027;-72
2021/03/23 02:58:38;;;;;;;11.02;4.30;;;7.50;99.90;;;;;;4982470;28;20469;-72
2021/03/23 03:01:06;;;;;;;11.00;4.97;;;7.60;99.90;;;;;;4975214;28;20039;-72
2021/03/23 03:03:32;;;;;;;8.88;4.20;;;7.50;99.90;;;;;;4973596;28;20022;-72
2021/03/23 03:05:58;;;;;;;8.93;4.53;;;7.40;99.90;;;;;;4981520;28;20033;-72
2021/03/23 03:08:24;;;;;;;10.63;4.53;;;7.50;99.90;;;;;;4973929;28;20030;-72
2021/03/23 03:10:51;;;;;;;9.85;4.57;;;7.40;99.90;;;;;;4980087;28;20031;-72
2021/03/23 03:13:20;;;;;;;12.30;4.47;;;7.40;99.90;;;;;;4978733;28;20030;-73
2021/03/23 03:15:46;;;;;;;9.93;4.88;;;7.30;99.90;;;;;;4970574;28;20030;-72
2021/03/23 03:18:12;;;;;;;11.15;4.30;;;7.40;99.90;;;;;;4985828;28;20184;-72
2021/03/23 03:20:38;;;;;;;10.75;4.55;;;7.40;99.90;;;;;;4986386;28;20031;-72
2021/03/23 03:23:03;;;;;;;11.50;4.50;;;7.30;99.90;;;;;;4981708;28;20030;-72
2021/03/23 03:25:29;;;;;;;8.35;4.30;;;7.30;99.90;;;;;;4981511;28;20025;-72
2021/03/23 03:27:54;;;;;;;6.72;4.10;;;7.20;99.90;;;;;;4980503;28;20121;-72
2021/03/23 03:30:31;;;;;;;8.45;4.35;;;7.20;99.90;;;;;;4976239;28;20053;-71
2021/03/23 03:32:57;;;;;;;11.38;4.50;;;7.20;99.90;;;;;;4966375;28;20085;-72
2021/03/23 03:35:31;;;;;;;6.90;3.72;;;7.20;99.90;;;;;;4981590;28;20059;-72
2021/03/23 03:37:59;;;;;;;6.50;3.67;;;7.20;99.90;;;;;;4982757;28;20120;-72
2021/03/23 03:40:31;;;;;;;6.45;4.00;;;7.30;99.90;;;;;;4974876;28;20034;-72
2021/03/23 03:42:56;;;;;;;6.10;3.70;;;7.30;99.90;;;;;;4981255;28;20058;-72
2021/03/23 03:45:23;;;;;;;7.47;3.78;;;7.30;99.90;;;;;;4982812;28;20019;-72
2021/03/23 03:47:52;;;;;;;7.03;3.72;;;7.40;99.90;;;;;;4978784;28;20109;-72
2021/03/23 03:50:20;;;;;;;6.78;3.28;;;7.30;99.90;;;;;;4977633;28;20393;-72
2021/03/23 03:52:45;;;;;;;5.95;3.40;;;7.30;99.90;;;;;;4977894;28;20044;-72
2021/03/23 03:55:15;;;;;;;6.88;3.63;;;7.30;99.90;;;;;;4981747;28;21552;-71
2021/03/23 03:57:40;;;;;;;7.90;3.65;;;7.30;99.90;;;;;;4981598;28;20042;-72
2021/03/23 04:00:08;;;;;;;6.72;3.60;;;7.20;99.90;;;;;;4982940;28;20040;-72
2021/03/23 04:02:33;;;;;;;5.82;3.10;;;7.30;99.90;;;;;;4982803;28;20192;-72
2021/03/23 04:04:59;;;;;;;7.57;3.22;;;7.30;99.90;;;;;;4974644;28;20438;-72
2021/03/23 04:07:24;;;;;;;5.95;3.33;;;7.30;99.90;;;;;;4983464;28;20030;-72
2021/03/23 04:09:50;;;;;;;5.60;3.28;;;7.40;99.90;;;;;;4985539;28;20040;-72
2021/03/23 04:12:15;;;;;;;6.68;3.65;;;7.30;99.90;;;;;;4981998;28;20390;-72
2021/03/23 04:14:41;;;;;;;5.57;3.33;;;7.20;99.90;;;;;;4982581;28;20026;-72
2021/03/23 04:17:06;;;;;;;7.20;3.30;;;7.20;99.90;;;;;;4978758;28;20022;-72
2021/03/23 04:19:32;;;;;;;7.68;3.63;;;7.10;99.90;;;;;;4986002;28;20034;-72
2021/03/23 04:21:57;;;;;;;6.78;3.25;;;7.20;99.90;;;;;;4980538;28;20062;-72
2021/03/23 04:24:23;;;;;;;5.35;2.83;;;7.10;99.90;;;;;;4976167;28;20057;-72
2021/03/23 04:26:49;;;;;;;4.78;3.00;;;7.20;99.90;;;;;;4984390;28;20026;-72
2021/03/23 04:29:15;;;;;;;5.88;2.90;;;7.20;99.90;;;;;;4976535;28;20557;-72
2021/03/23 04:31:43;;;;;;;5.88;2.53;;;7.20;99.90;;;;;;4976546;28;20046;-72
2021/03/23 04:34:11;;;;;;;5.35;2.85;;;7.20;99.90;;;;;;4975001;28;20062;-72
2021/03/23 04:36:37;;;;;;;5.13;2.83;;;7.20;99.90;;;;;;4976616;28;20121;-72
2021/03/23 04:39:05;;;;;;;3.85;2.65;;;7.20;99.90;;;;;;4976050;28;20133;-72
2021/03/23 04:41:31;;;;;;;3.13;2.53;;;7.10;99.90;;;;;;4984602;28;20041;-72
2021/03/23 04:43:57;;;;;;;4.80;2.78;;;7.10;99.90;;;;;;4982343;28;20026;-72
2021/03/23 04:46:25;;;;;;;3.13;2.22;;;7.20;99.90;;;;;;4983493;28;20054;-72
2021/03/23 04:48:51;;;;;;;3.05;2.22;;;7.10;99.90;;;;;;4983822;28;20418;-72
2021/03/23 04:51:20;;;;;;;4.18;2.47;;;7.20;99.90;;;;;;4972763;28;20118;-72
2021/03/23 04:53:45;;;;;;;6.18;2.67;;;7.10;99.90;;;;;;4983927;28;20027;-72
2021/03/23 04:56:23;;;;;;;2.50;2.08;;;7.20;99.90;;;;;;4980895;28;20595;-71
2021/03/23 04:58:49;;;;;;;4.85;2.20;;;7.20;99.90;;;;;;4983240;28;20034;-73
2021/03/23 05:01:14;;;;;;;4.70;2.08;;;7.20;99.90;;;;;;4976665;28;20736;-71
2021/03/23 05:03:40;;;;;;;3.28;1.98;;;7.10;99.90;;;;;;4977491;28;20126;-72
2021/03/23 05:06:08;;;;;;;3.20;2.10;;;7.20;99.90;;;;;;4978359;28;20061;-72
2021/03/23 05:08:35;;;;;;;3.40;1.70;;;7.10;99.90;;;;;;4968405;28;20142;-71
2021/03/23 05:11:01;;;;;;;1.85;1.60;;;7.10;99.90;;;;;;4979999;28;20038;-72
2021/03/23 05:13:27;;;;;;;1.50;1.20;;;7.20;99.90;;;;;;4983598;28;20026;-71
2021/03/23 05:15:53;;;;;;;3.75;1.38;;;7.10;99.90;;;;;;4974771;28;20070;-72
2021/03/23 05:18:18;;;;;;;2.78;1.52;;;7.10;99.90;;;;;;4982332;28;20033;-72
2021/03/23 05:20:44;;;;;;;2.22;1.58;;;7.10;99.90;;;;;;4983485;28;20023;-72
2021/03/23 05:23:14;;;;;;;3.25;1.75;;;7.00;99.90;;;;;;4981195;28;20389;-72
2021/03/23 05:25:43;;;;;;;3.10;1.45;;;7.00;99.90;;;;;;4977673;28;20114;-72
2021/03/23 05:28:10;;;;;;;2.67;1.55;;;7.10;99.90;;;;;;4980735;28;20034;-72
2021/03/23 05:30:36;;;;;;;4.07;1.60;;;7.00;99.90;;;;;;4980953;28;20018;-71
2021/03/23 05:33:02;;;;;;;3.42;1.45;;;7.00;99.90;;;;;;4981041;28;20054;-72
2021/03/23 05:35:28;;;;;;;2.90;1.67;;;7.00;99.90;;;;;;4979434;28;20088;-72
2021/03/23 05:37:54;;;;;;;4.00;1.98;;;7.00;99.90;;;;;;4981359;28;20180;-72
2021/03/23 05:40:24;;;;;;;3.17;1.85;;;7.00;99.90;;;;;;4977919;28;20030;-72
2021/03/23 05:43:03;;;;;;;2.58;1.85;;;7.00;99.90;;;;;;4971850;28;20026;-72
2021/03/23 05:45:38;;;;;;;5.13;2.00;;;7.00;99.90;;;;;;4977411;28;20027;-72
2021/03/23 05:48:15;;;;;;;2.58;1.88;;;7.00;99.90;;;;;;4974561;28;20045;-71
2021/03/23 05:50:46;;;;;;;2.83;2.20;;;7.00;99.90;;;;;;4981879;28;20109;-75
2021/03/23 05:53:19;;;;;;;7.45;2.15;;;7.10;99.90;;;;;;4971709;28;20559;-75
2021/03/23 05:55:47;;;;;;;6.22;2.47;;;7.10;99.90;;;;;;4981209;28;20034;-73
2021/03/23 05:58:23;;;;;;;5.32;2.35;;;7.10;99.90;;;;;;4984532;28;20033;-73
2021/03/23 06:01:21;;;;;;;4.10;2.25;;;7.10;99.90;;;;;;4980742;28;20458;-73
2021/03/23 06:04:08;;;;;;;3.75;2.20;;;7.10;99.90;;;;;;4974585;28;20109;-74
2021/03/23 06:06:44;;;;;;;7.35;2.45;;;7.10;99.90;;;;;;4970803;28;20030;-74
2021/03/23 06:09:12;;;;;;;4.00;2.30;;;7.20;99.90;;;;;;4975755;28;20031;-74
2021/03/23 06:11:41;;;;;;;5.05;2.47;;;7.20;99.90;;;;;;4977630;28;20015;-74
2021/03/23 06:14:36;;;;;;;4.53;2.30;;;7.30;99.90;;;;;;4983208;28;20034;-73
2021/03/23 06:17:36;;;;;;;5.30;2.60;;;7.20;99.90;;;;;;4976430;28;20042;-74
2021/03/23 06:20:43;;;;;;;6.05;2.58;;;7.30;99.90;;;;;;4980765;28;20113;-73
2021/03/23 06:23:37;;;;;;;5.05;2.65;;;7.30;99.90;;;;;;4955349;28;20019;-73
2021/03/23 06:26:22;;;;;;;3.80;2.28;;;7.40;99.90;;;;;;4969531;28;20117;-73
2021/03/23 06:29:25;;;;;;;4.35;2.65;;;7.40;99.90;;;;;;4977275;28;20514;-73
2021/03/23 06:32:09;;;;;;;4.82;2.60;;;7.40;99.90;;;;;;4983502;28;20054;-73
2021/03/23 06:34:36;;;;;;;7.15;2.58;;;7.30;99.90;;;;;;4974161;28;20099;-74
2021/03/23 06:37:19;;;;;;;9.05;3.13;;;7.40;99.90;;;;;;4983607;28;20058;-73
2021/03/23 06:39:44;;;;;;;6.22;3.25;;;7.40;99.90;;;;;;4976863;28;20027;-74
2021/03/23 06:42:10;;;;;;;5.03;3.17;;;7.30;99.90;;;;;;4969946;28;20038;-73
2021/03/23 06:44:38;;;;;;;6.32;2.85;;;7.40;99.90;;;;;;4982120;28;20026;-73
2021/03/23 06:47:05;;;;;;;7.07;3.17;;;7.40;99.90;;;;;;4981477;28;20030;-73
2021/03/23 06:49:37;;;;;;;5.57;3.22;;;7.40;99.90;;;;;;4981862;28;20096;-73
2021/03/23 06:52:11;;;;;;;6.60;3.13;;;7.40;99.90;;;;;;4977606;28;20042;-73
2021/03/23 06:54:43;;;;;;;5.63;3.03;;;7.50;99.90;;;;;;4980255;28;20034;-73
2021/03/23 06:57:12;;;;;;;4.55;2.15;;;7.40;99.90;;;;;;4972823;28;20069;-73
2021/03/23 06:59:59;;;;;;;4.22;2.80;;;7.40;99.90;;;;;;4984091;28;20018;-74
2021/03/23 07:02:46;;;;;;;6.00;2.80;;;7.50;99.90;;;;;;4964267;28;20117;-73
2021/03/23 07:05:27;;;;;;;3.80;2.40;;;7.60;99.90;;;;;;4972962;28;20033;-73
2021/03/23 07:08:15;;;;;;;5.78;2.75;;;7.60;99.90;;;;;;4977889;28;20092;-73
2021/03/23 07:11:02;;;;;;;5.15;2.75;;;7.50;99.90;;;;;;4978084;28;20026;-73
2021/03/23 07:13:28;;;;;;;5.82;2.75;;;7.60;99.90;;;;;;4959369;28;20026;-73
2021/03/23 07:16:12;;;;;;;5.95;2.55;;;7.50;99.90;;;;;;4981587;28;20503;-73
2021/03/23 07:18:43;;;;;;;3.40;2.17;;;7.60;99.90;;;;;;4982529;28;20112;-74
2021/03/23 07:21:37;;;;;;;3.72;2.38;;;7.60;99.90;;;;;;4981991;28;20027;-73
2021/03/23 07:24:15;;;;;;;5.60;2.72;;;7.60;99.90;;;;;;4984944;28;20063;-74
2021/03/23 07:26:59;;;;;;;5.07;2.70;;;7.60;99.90;;;;;;4986159;28;20036;-73
2021/03/23 07:29:34;;;;;;;3.47;2.63;;;7.50;99.90;;;;;;4985093;28;20022;-73
2021/03/23 07:32:25;;;;;;;6.30;2.50;;;7.50;99.90;;;;;;4980908;28;20038;-73
2021/03/23 07:35:09;;;;;;;5.05;2.40;;;7.50;99.90;;;;;;4981667;28;20034;-73
2021/03/23 07:37:48;;;;;;;5.43;2.90;;;7.60;99.90;;;;;;4978625;28;20370;-73
2021/03/23 07:40:23;;;;;;;3.70;2.30;;;7.70;99.90;;;;;;4972722;28;20038;-73
2021/03/23 07:43:04;;;;;;;5.85;2.58;;;7.60;99.90;;;;;;4978571;28;20436;-74
2021/03/23 07:45:55;;;;;;;4.38;2.47;;;7.70;99.90;;;;;;4981842;28;20106;-73
2021/03/23 07:48:34;;;;;;;4.70;2.40;;;7.70;99.90;;;;;;4972339;28;20043;-73
2021/03/23 07:51:15;;;;;;;5.55;3.00;;;7.70;99.90;;;;;;4978732;28;20034;-73
2021/03/23 07:53:42;;;;;;;5.40;2.90;;;7.70;99.90;;;;;;4981870;28;20026;-74
2021/03/23 07:56:23;;;;;;;3.72;2.60;;;7.80;99.90;;;;;;4974945;28;20290;-76
2021/03/23 07:59:05;;;;;;;2.90;2.25;;;7.70;99.90;;;;;;4977007;28;20030;-76
2021/03/23 08:01:36;;;;;;;;;;;7.80;99.90;;;;;;4983258;28;20141;-77
2021/03/23 08:04:06;;;;;;;6.18;2.55;;;7.80;99.90;;;;;;4981516;28;19941;-75
2021/03/23 08:06:53;;;;;;;6.88;2.90;;;7.70;99.90;;;;;;4976227;28;20023;-77
2021/03/23 08:09:35;;;;;;;3.13;2.10;;;7.70;99.90;;;;;;4967873;28;20026;-76
2021/03/23 08:12:22;;;;;;;8.02;2.15;;;7.60;99.90;;;;;;4968945;28;20035;-76
2021/03/23 08:15:01;;;;;;;7.10;2.50;;;7.70;99.90;;;;;;4976716;28;20030;-75
2021/03/23 08:17:51;;;;;;;4.13;1.88;;;7.60;99.90;;;;;;4970252;28;20026;-76
2021/03/23 08:20:19;;;;;;;3.63;2.45;;;7.60;99.90;;;;;;4986175;28;20121;-78
2021/03/23 08:22:48;;;;;;;2.47;1.85;;;7.70;99.90;;;;;;4983500;28;20041;-76
2021/03/23 08:25:41;;;;;;;2.90;1.95;;;7.70;99.90;;;;;;4974841;28;20027;-75
2021/03/23 08:28:50;;;;;;;3.72;2.05;;;7.80;99.90;;;;;;4980493;28;20030;-77
2021/03/23 08:31:31;;;;;;;4.75;2.42;;;7.80;99.90;;;;;;4967696;28;20117;-76
2021/03/23 08:34:34;;;;;;;3.70;2.40;;;7.80;99.90;;;;;;4967374;28;20049;-76
2021/03/23 08:37:40;;;;;;;5.72;2.10;;;7.70;99.90;;;;;;4977159;28;20089;-82
2021/03/23 08:40:31;;;;;;;3.15;2.00;;;7.70;99.90;;;;;;4971657;28;20077;-73
2021/03/23 08:42:57;;;;;;;3.83;2.00;;;7.80;99.90;;;;;;4972368;28;20023;-82
2021/03/23 08:45:28;;;;;;;2.65;2.03;;;7.80;99.90;;;;;;4965432;28;20465;-76
2021/03/23 08:48:24;;;;;;;4.40;2.03;;;7.90;99.90;;;;;;4973709;28;20022;-77
2021/03/23 08:50:56;;;;;;;3.47;2.25;;;7.80;99.90;;;;;;4967791;28;20038;-77
2021/03/23 08:53:28;;;;;;;8.40;2.17;;;7.80;99.90;;;;;;4974029;28;20054;-85
2021/03/23 08:55:54;;;;;;;3.22;2.10;;;7.80;99.90;;;;;;4973932;28;20048;-79
2021/03/23 08:58:42;;;;;;;3.25;2.35;;;7.90;99.90;;;;;;4979019;28;20046;-83
2021/03/23 09:01:25;;;;;;;3.58;2.33;;;8.00;99.90;;;;;;4966391;28;20049;-84
2021/03/23 09:03:53;;;;;;;3.45;2.05;;;8.00;99.90;;;;;;4984518;28;20278;-78
2021/03/23 09:06:23;;;;;;;3.28;2.15;;;8.00;99.90;;;;;;4978657;28;20101;-77
2021/03/23 09:09:13;;;;;;;2.93;2.23;;;8.00;99.90;;;;;;4958945;28;21039;-80
2021/03/23 09:12:14;;;;;;;3.40;2.25;;;8.20;99.90;;;;;;4976133;28;20041;-77
2021/03/23 09:15:05;;;;;;;6.10;2.38;;;8.30;99.90;;;;;;4988031;28;20388;-78
2021/03/23 09:17:59;;;;;;;5.18;2.25;;;8.10;99.90;;;;;;4978799;28;20054;-79
2021/03/23 09:20:31;;;;;;;3.67;2.38;;;8.10;99.90;;;;;;4980036;28;20378;-75
2021/03/23 09:23:15;;;;;;;4.03;2.20;;;8.30;99.90;;;;;;4979537;28;20477;-77
2021/03/23 09:26:00;;;;;;;3.63;2.22;;;8.30;99.90;;;;;;4971103;28;20035;-77
2021/03/23 09:31:05;;;;;;;3.88;2.10;;;8.50;99.90;;;;;;4978105;28;20501;-72
2021/03/23 09:33:36;;;;;;;3.63;2.00;;;8.50;99.90;;;;;;4987840;28;20054;-72
2021/03/23 09:36:07;;;;;;;4.82;2.05;;;8.50;99.90;;;;;;4980743;28;20080;-73
2021/03/23 09:38:51;;;;;;;5.15;2.40;;;8.50;99.90;;;;;;4978590;28;20118;-72
2021/03/23 09:41:22;;;;;;;4.72;2.25;;;8.50;99.90;;;;;;4968659;28;20027;-73
2021/03/23 09:43:49;;;;;;;3.20;1.98;;;8.60;99.90;;;;;;4972506;28;20598;-72
2021/03/23 09:46:36;;;;;;;3.03;2.10;;;8.60;99.90;;;;;;4971285;28;20035;-73
2021/03/23 09:49:27;;;;;;;3.40;2.60;;;8.60;99.90;;;;;;4985929;28;20054;-75
2021/03/23 09:52:02;;;;;;;5.78;3.22;;;8.70;99.90;;;;;;4968964;28;20026;-76
2021/03/23 09:54:35;;;;;;;4.70;2.80;;;8.70;99.90;;;;;;4965941;28;20035;-75
2021/03/23 09:57:16;;;;;;;4.00;2.25;;;8.80;99.90;;;;;;4975588;28;20054;-75
2021/03/23 09:59:47;;;;;;;;;;;8.90;99.90;;;;;;4978035;28;20188;-75
2021/03/23 10:02:30;;;;;;;3.30;1.98;;;8.90;99.90;;;;;;4977983;28;19921;-75
2021/03/23 10:04:56;;;;;;;3.45;2.38;;;8.90;99.90;;;;;;4983454;28;20018;-74
2021/03/23 10:07:40;;;;;;;8.35;2.45;;;8.90;99.90;;;;;;4982865;28;20022;-75
2021/03/23 10:10:12;;;;;;;3.63;2.10;;;9.00;99.90;;;;;;4963436;28;20390;-75
2021/03/23 10:12:38;;;;;;;2.53;1.73;;;9.10;99.90;;;;;;4978138;28;20022;-75
2021/03/23 10:15:21;;;;;;;3.13;1.73;;;9.10;99.90;;;;;;4978518;28;20053;-75
2021/03/23 10:17:47;;;;;;;3.92;1.90;;;9.10;99.90;;;;;;4978010;28;20031;-76
2021/03/23 10:20:19;;;;;;;4.10;2.08;;;9.00;99.90;;;;;;4974730;28;20040;-76
2021/03/23 10:22:53;;;;;;;5.13;1.70;;;9.20;99.90;;;;;;4983052;28;20062;-76
2021/03/23 10:25:20;;;;;;;3.10;1.70;;;9.30;99.90;;;;;;4983496;28;20035;-76
2021/03/23 10:27:50;;;;;;;3.53;1.73;;;9.30;99.90;;;;;;4981784;28;20026;-75
2021/03/23 10:30:18;;;;;;;2.92;1.50;;;9.40;99.90;;;;;;4962533;28;20054;-77
2021/03/23 10:32:46;;;;;;;2.72;1.73;;;9.50;99.90;;;;;;4975301;28;20046;-76
2021/03/23 10:35:24;;;;;;;2.80;1.70;;;9.50;99.90;;;;;;4978335;28;20027;-73
2021/03/23 10:38:17;;;;;;;3.67;1.83;;;9.50;99.90;;;;;;4980660;28;20120;-72
2021/03/23 10:40:48;;;;;;;2.85;1.77;;;9.60;99.90;;;;;;4975551;28;20030;-72
2021/03/23 10:43:38;;;;;;;3.13;1.80;;;9.60;99.90;;;;;;4979547;28;20065;-72
2021/03/23 10:46:25;;;;;;;3.03;1.85;;;9.70;99.80;;;;;;4978015;28;20104;-72
2021/03/23 10:48:50;;;;;;;2.42;1.73;;;9.70;98.30;;;;;;4982274;28;20030;-73
2021/03/23 10:51:22;;;;;;;3.90;2.30;;;9.70;98.60;;;;;;4978572;28;20061;-72
2021/03/23 10:54:13;;;;;;;4.90;1.48;;;9.70;98.70;;;;;;4974336;28;20117;-72
2021/03/23 10:56:41;;;;;;;3.42;1.70;;;9.70;98.30;;;;;;4984059;28;20030;-74
2021/03/23 10:59:19;;;;;;;2.13;1.65;;;9.70;97.60;;;;;;4979639;28;20029;-72
2021/03/23 11:01:57;;;;;;;4.00;1.67;;;9.80;96.80;;;;;;4980842;28;20469;-72
2021/03/23 11:04:22;;;;;;;2.67;1.77;;;9.70;97.40;;;;;;4977479;28;20041;-73
2021/03/23 11:06:48;;;;;;;3.35;2.00;;;9.80;96.90;;;;;;4977909;28;20106;-72
2021/03/23 11:09:16;;;;;;;3.28;1.60;;;9.90;96.10;;;;;;4975065;28;20640;-73
2021/03/23 11:11:43;;;;;;;4.05;1.27;;;10.00;96.50;;;;;;4976586;28;20515;-74
2021/03/23 11:14:09;;;;;;;2.45;1.52;;;10.00;96.00;;;;;;4976029;28;20034;-73
2021/03/23 11:16:38;;;;;;;2.05;1.30;;;10.00;96.50;;;;;;4979617;28;20057;-76
2021/03/23 11:19:16;;;;;;;2.00;1.55;;;10.10;95.60;;;;;;4980655;28;20493;-74
2021/03/23 11:21:43;;;;;;;2.22;1.55;;;10.10;95.60;;;;;;4978044;28;20489;-74
2021/03/23 11:24:09;;;;;;;2.50;1.70;;;10.10;95.20;;;;;;4957304;28;20191;-74
2021/03/23 11:26:35;;;;;;;2.42;1.45;;;10.30;94.60;;;;;;4977934;28;20553;-74
2021/03/23 11:29:05;;;;;;;3.10;1.30;;;10.30;94.10;;;;;;4979562;28;20076;-74
2021/03/23 11:31:33;;;;;;;2.90;1.40;;;10.50;92.70;;;;;;4981317;28;20357;-74
2021/03/23 11:34:00;;;;;;;1.67;1.25;;;10.70;90.80;;;;;;4958481;28;20030;-74
2021/03/23 11:36:27;;;;;;;2.97;1.73;;;10.50;90.50;;;;;;4973424;28;20030;-75
2021/03/23 11:38:54;;;;;;;4.55;1.42;;;10.50;90.20;;;;;;4960164;28;20176;-74
2021/03/23 11:41:24;;;;;;;3.75;1.23;;;10.40;89.90;;;;;;4974650;28;20085;-74
2021/03/23 11:44:15;;;;;;;3.33;1.40;;;10.40;90.40;;;;;;4971653;28;20173;-73
2021/03/23 11:46:49;;;;;;;3.03;1.17;;;10.30;90.40;;;;;;4981337;28;20714;-74
2021/03/23 11:49:48;;;;;;;6.10;1.55;;;10.20;92.40;;;;;;4974520;28;20026;-74
2021/03/23 11:52:14;;;;;;;2.65;1.48;;;10.30;90.70;;;;;;4982104;28;20470;-77
2021/03/23 11:54:40;;;;;;;2.95;1.30;;;10.20;90.30;;;;;;4983203;28;20045;-75
2021/03/23 11:57:05;;;;;;;1.90;1.30;;;10.10;91.00;;;;;;4981095;28;20557;-75
2021/03/23 11:59:31;;;;;;;1.67;0.98;;;10.10;91.00;;;;;;4986038;28;20046;-75
2021/03/23 12:01:57;;;;;;;1.45;1.20;;;9.90;91.30;;;;;;4983173;28;20113;-74
2021/03/23 12:04:23;;;;;;;1.73;1.30;;;9.80;92.20;;;;;;4984332;28;20482;-74
2021/03/23 12:07:14;;;;;;;1.73;1.30;;;9.80;93.00;;;;;;4980604;28;20035;-75
2021/03/23 12:09:53;;;;;;;1.95;1.67;;;9.80;93.80;;;;;;4983368;28;20026;-75
2021/03/23 12:12:54;;;;;;;3.05;2.03;;;9.60;95.00;;;;;;4980300;28;20071;-75
2021/03/23 12:15:26;;;;;;;4.78;1.98;;;9.50;95.60;;;;;;4981822;28;20128;-75
2021/03/23 12:17:55;;;;;;;;;;;9.40;96.40;;;;;;4979173;28;20034;-75
2021/03/23 12:20:24;;;;;;;3.60;2.05;;;9.40;95.40;;;;;;4977467;28;19921;-75
2021/03/23 12:22:51;;;;;;;2.47;1.42;;;9.40;95.20;;;;;;4983284;28;20401;-75
2021/03/23 12:25:20;;;;;;;3.22;1.80;;;9.40;96.20;;;;;;4984170;28;20030;-75
2021/03/23 12:27:46;;;;;;;4.85;1.92;;;9.50;95.40;;;;;;4983548;28;20090;-75
2021/03/23 12:30:13;;;;;;;7.57;2.00;;;9.50;95.70;;;;;;4985294;28;20125;-75
2021/03/23 12:32:40;;;;;;;3.65;1.95;;;9.60;95.10;;;;;;4965218;28;20049;-75
2021/03/23 12:35:10;;;;;;;3.00;1.90;;;9.70;94.80;;;;;;4977877;28;20535;-75
2021/03/23 12:37:38;;;;;;;2.05;1.42;;;9.70;95.30;;;;;;4982046;28;20110;-75
2021/03/23 12:40:10;;;;;;;2.33;1.65;;;9.70;94.70;;;;;;4982503;28;20392;-75
2021/03/23 12:42:35;;;;;;;;;;;9.70;95.00;;;;;;4985873;28;20042;-76
2021/03/23 12:45:02;;;;;;;2.65;1.63;;;9.80;94.50;;;;;;4983692;28;20457;-74
2021/03/23 12:47:28;;;;;;;3.10;1.73;;;9.90;94.30;;;;;;4984217;28;20106;-74
2021/03/23 12:49:53;;;;;;;2.42;1.70;;;9.90;94.30;;;;;;4982025;28;20120;-73
2021/03/23 12:52:21;;;;;;;2.78;1.35;;;10.00;94.70;;;;;;4985392;28;20030;-74
2021/03/23 12:54:50;;;;;;;2.78;1.80;;;10.10;93.40;;;;;;4983412;28;20944;-75
2021/03/23 12:57:39;;;;;;;3.25;1.80;;;10.10;93.40;;;;;;4982526;28;20128;-75
2021/03/23 13:00:24;;;;;;;2.28;1.58;;;10.00;93.40;;;;;;4982635;28;20046;-73
2021/03/23 13:02:49;;;;;;;3.20;1.90;;;10.20;93.60;;;;;;4983912;28;20026;-74
2021/03/23 13:05:15;;;;;;;3.92;1.90;;;10.20;93.60;;;;;;4984736;28;20041;-76
2021/03/23 13:07:41;;;;;;;3.15;2.05;;;10.20;92.70;;;;;;4986202;28;20847;-85
2021/03/23 13:10:38;;;;;;;3.78;1.80;;;10.10;93.10;;;;;;4985114;28;20022;-73
2021/03/23 13:13:25;;;;;;;4.28;2.13;;;9.90;92.70;;;;;;4967818;28;20038;-73
2021/03/23 13:15:52;;;;;;;3.75;1.60;;;9.80;93.10;;;;;;4983940;28;20037;-73
2021/03/23 13:18:22;;;;;;;5.50;2.42;;;9.80;93.40;;;;;;4983155;28;20481;-74
2021/03/23 13:20:49;;;;;;;3.20;1.90;;;9.80;94.00;;;;;;4985662;28;20026;-74
2021/03/23 13:23:22;;;;;;;5.93;1.98;;;9.80;93.50;;;;;;4984952;28;20553;-73
2021/03/23 13:25:56;;;;;;;4.80;1.88;;;9.80;93.40;;;;;;4983392;28;20030;-75
2021/03/23 13:28:51;;;;;;;2.05;1.63;;;9.70;93.90;;;;;;4985467;28;20046;-74